Time;durP1;ratioP1;P1;durP2;ratioP2;P2;SDS_P1;SDS_P2;PMS_P1;PMS_P2;Temp;Humidity;BMP_temperature;BMP_pressure;BME280_temperature;BME280_humidity;BME280_pressure;Samples;Min_cycle;Max_cycle;Signal;HPM_P1;HPM_P2
2023/01/09 00:00:14;;;;;;;2.00;1.40;;;;;;;9.91;82.43;97801.06;340642;29;1714;-68
2023/01/09 00:00:28;;;;;;;2.47;1.38;;;;;;;9.89;82.75;97797.72;339559;29;1170;-68
2023/01/09 00:00:40;;;;;;;3.78;1.40;;;;;;;9.83;82.88;97797.25;339280;29;1957;-68
2023/01/09 00:00:53;;;;;;;3.70;1.50;;;;;;;9.83;82.80;97798.06;340678;29;1662;-69
2023/01/09 00:01:18;;;;;;;3.20;1.45;;;;;;;9.80;82.97;97803.47;338732;29;1806;-68
2023/01/09 00:01:34;;;;;;;2.67;1.38;;;;;;;9.79;82.63;97799.19;338277;29;1695;-68
2023/01/09 00:01:49;;;;;;;1.80;1.30;;;;;;;9.70;83.19;97797.13;339687;29;1063;-68
2023/01/09 00:02:01;;;;;;;2.08;1.23;;;;;;;9.68;83.59;97793.78;339516;29;1886;-68
2023/01/09 00:02:13;;;;;;;2.10;1.30;;;;;;;9.69;83.34;97795.47;339664;29;1251;-68
2023/01/09 00:02:25;;;;;;;1.83;1.20;;;;;;;9.70;83.68;97791.94;339768;28;1362;-68
2023/01/09 00:02:39;;;;;;;1.85;1.40;;;;;;;9.75;83.26;97795.09;339253;29;1062;-68
2023/01/09 00:02:51;;;;;;;2.05;1.60;;;;;;;9.79;83.65;97791.41;339693;29;1030;-68
2023/01/09 00:03:04;;;;;;;2.63;1.50;;;;;;;9.82;83.47;97786.03;339700;29;1016;-68
2023/01/09 00:03:15;;;;;;;2.70;1.40;;;;;;;9.82;83.44;97791.22;341262;28;1613;-68
2023/01/09 00:03:28;;;;;;;2.25;1.40;;;;;;;9.84;83.28;97791.97;341186;28;1697;-68
2023/01/09 00:03:40;;;;;;;1.83;1.40;;;;;;;9.85;82.99;97791.03;340623;29;1784;-68
2023/01/09 00:03:52;;;;;;;1.77;1.33;;;;;;;9.85;83.14;97796.22;340946;29;1042;-68
2023/01/09 00:04:04;;;;;;;1.88;1.42;;;;;;;9.86;82.99;97792.72;340693;29;1279;-68
2023/01/09 00:04:17;;;;;;;1.75;1.30;;;;;;;9.87;82.81;97793.53;340711;29;1251;-67
2023/01/09 00:04:29;;;;;;;2.38;1.30;;;;;;;9.86;83.24;97789.28;340839;29;1328;-68
2023/01/09 00:04:42;;;;;;;2.47;1.20;;;;;;;9.88;82.78;97785.69;340349;29;1588;-68
2023/01/09 00:04:54;;;;;;;1.85;1.15;;;;;;;9.87;82.99;97783.16;338345;29;2012;-68
2023/01/09 00:05:07;;;;;;;2.20;1.17;;;;;;;9.84;83.13;97789.38;339021;29;1821;-68
2023/01/09 00:05:19;;;;;;;1.90;1.10;;;;;;;9.85;82.90;97791.03;338067;29;2108;-68
2023/01/09 00:05:31;;;;;;;1.50;1.05;;;;;;;9.86;82.72;97790.13;339114;29;1570;-67
2023/01/09 00:05:43;;;;;;;1.40;1.10;;;;;;;9.90;82.55;97789.00;339092;29;1979;-68
2023/01/09 00:05:55;;;;;;;1.33;1.00;;;;;;;9.91;82.62;97788.06;340626;29;1875;-68
2023/01/09 00:06:07;;;;;;;1.63;1.10;;;;;;;9.93;82.72;97786.22;340563;29;1020;-68
2023/01/09 00:06:19;;;;;;;1.63;1.02;;;;;;;9.85;82.34;97785.84;340874;29;1294;-68
2023/01/09 00:06:31;;;;;;;1.50;1.10;;;;;;;9.89;82.63;97789.09;340664;29;1121;-68
2023/01/09 00:06:52;;;;;;;1.55;1.10;;;;;;;9.88;82.54;97782.22;341095;29;1260;-68
2023/01/09 00:07:05;;;;;;;1.25;0.90;;;;;;;9.90;82.70;97785.56;341266;28;1622;-67
2023/01/09 00:07:17;;;;;;;1.17;0.98;;;;;;;9.88;82.64;97784.81;339653;29;1347;-67
2023/01/09 00:07:29;;;;;;;1.95;1.00;;;;;;;9.87;82.84;97778.81;340704;29;1588;-68
2023/01/09 00:07:44;;;;;;;1.90;1.00;;;;;;;9.87;82.86;97783.16;339701;29;1442;-67
2023/01/09 00:07:56;;;;;;;2.03;1.10;;;;;;;9.87;82.66;97778.81;339721;28;1644;-68
2023/01/09 00:08:08;;;;;;;1.35;1.00;;;;;;;9.92;82.41;97784.56;341484;28;1916;-68
2023/01/09 00:08:20;;;;;;;1.90;1.00;;;;;;;9.92;82.35;97787.16;340722;28;1342;-68
2023/01/09 00:08:32;;;;;;;1.75;0.93;;;;;;;9.90;82.48;97783.81;340535;29;1080;-68
2023/01/09 00:08:44;;;;;;;1.95;1.00;;;;;;;9.91;82.37;97782.88;340432;29;1200;-68
2023/01/09 00:08:56;;;;;;;1.90;1.10;;;;;;;9.91;82.28;97780.28;340568;29;1105;-68
2023/01/09 00:09:09;;;;;;;2.20;1.05;;;;;;;9.91;82.43;97780.28;339742;29;1736;-68
2023/01/09 00:09:22;;;;;;;2.33;1.10;;;;;;;9.91;82.09;97779.47;341375;28;1302;-68
2023/01/09 00:09:35;;;;;;;1.15;1.05;;;;;;;9.90;82.36;97778.63;342532;28;919;-68
2023/01/09 00:09:47;;;;;;;1.05;0.98;;;;;;;9.86;82.00;97778.88;342580;28;1074;-68
2023/01/09 00:09:59;;;;;;;1.10;1.00;;;;;;;9.87;82.45;97788.34;341840;28;2228;-68
2023/01/09 00:10:11;;;;;;;1.50;1.00;;;;;;;9.86;82.37;97782.34;340295;28;1908;-67
2023/01/09 00:10:23;;;;;;;1.20;0.90;;;;;;;9.85;82.30;97780.66;340837;28;1894;-68
2023/01/09 00:10:35;;;;;;;1.13;0.90;;;;;;;9.91;82.12;97782.88;341215;28;1949;-68
2023/01/09 00:10:49;;;;;;;1.10;0.90;;;;;;;9.90;82.21;97781.22;340747;29;1088;-67
2023/01/09 00:11:01;;;;;;;1.27;1.00;;;;;;;9.87;82.14;97784.00;340870;29;1091;-67
2023/01/09 00:11:13;;;;;;;1.80;1.00;;;;;;;9.88;82.54;97777.91;340886;29;1060;-68
2023/01/09 00:11:25;;;;;;;1.77;1.00;;;;;;;9.88;82.35;97775.28;341935;28;1308;-68
2023/01/09 00:11:37;;;;;;;2.05;1.10;;;;;;;9.91;82.07;97780.28;342108;28;1079;-68
2023/01/09 00:11:50;;;;;;;1.90;1.00;;;;;;;9.92;82.05;97786.31;342152;28;1043;-68
2023/01/09 00:12:05;;;;;;;1.48;1.00;;;;;;;9.95;82.04;97776.59;340043;29;1616;-68
2023/01/09 00:12:19;;;;;;;1.60;1.10;;;;;;;9.90;82.05;97778.63;341002;28;1750;-68
2023/01/09 00:12:31;;;;;;;1.38;1.00;;;;;;;9.85;81.90;97775.47;342033;28;1217;-68
2023/01/09 00:12:43;;;;;;;1.17;0.98;;;;;;;9.88;82.29;97777.91;341874;28;1083;-68
2023/01/09 00:12:55;;;;;;;1.25;1.00;;;;;;;9.89;82.28;97781.31;342021;28;1289;-68
2023/01/09 00:13:11;;;;;;;1.70;1.00;;;;;;;9.91;82.04;97775.09;342256;28;837;-67
2023/01/09 00:13:23;;;;;;;1.67;0.98;;;;;;;9.94;82.22;97780.13;343052;28;1233;-68
2023/01/09 00:13:37;;;;;;;1.75;1.00;;;;;;;9.96;82.07;97778.28;342303;28;1234;-68
2023/01/09 00:13:49;;;;;;;1.80;1.00;;;;;;;9.99;81.96;97777.25;342498;28;773;-68
2023/01/09 00:14:04;;;;;;;1.98;0.90;;;;;;;10.02;82.06;97776.22;342481;28;845;-67
2023/01/09 00:14:17;;;;;;;2.08;0.90;;;;;;;10.00;81.63;97777.16;341928;28;1435;-67
2023/01/09 00:14:29;;;;;;;1.38;0.82;;;;;;;9.99;82.25;97775.47;340444;29;1206;-68
2023/01/09 00:14:41;;;;;;;1.95;0.80;;;;;;;10.02;81.78;97773.63;340152;29;1886;-67
2023/01/09 00:14:53;;;;;;;1.90;0.80;;;;;;;10.05;81.84;97776.03;340594;29;1603;-67
2023/01/09 00:15:05;;;;;;;1.20;0.90;;;;;;;10.03;82.11;97777.91;340442;29;1060;-67
2023/01/09 00:15:17;;;;;;;1.45;0.93;;;;;;;10.05;81.67;97770.84;339130;28;1859;-68
2023/01/09 00:15:29;;;;;;;1.90;0.95;;;;;;;10.05;81.56;97781.22;339628;28;1836;-68
2023/01/09 00:15:41;;;;;;;1.70;0.90;;;;;;;10.09;81.50;97774.94;339561;29;3460;-67
2023/01/09 00:15:53;;;;;;;1.02;0.90;;;;;;;10.08;81.48;97778.44;340371;29;3057;-67
2023/01/09 00:16:07;;;;;;;1.10;0.90;;;;;;;10.09;81.63;97777.53;340769;29;1173;-67
2023/01/09 00:16:19;;;;;;;1.23;0.95;;;;;;;10.09;81.67;97772.31;340763;29;1240;-68
2023/01/09 00:16:31;;;;;;;2.25;1.00;;;;;;;10.00;81.42;97778.91;340778;28;1711;-68
2023/01/09 00:16:44;;;;;;;3.28;1.15;;;;;;;10.02;81.73;97771.03;341753;28;1899;-67
2023/01/09 00:16:56;;;;;;;2.35;1.00;;;;;;;10.02;81.95;97778.81;342185;28;1972;-68
2023/01/09 00:17:08;;;;;;;1.90;1.00;;;;;;;9.97;81.49;97773.91;341321;28;2075;-67
2023/01/09 00:17:20;;;;;;;1.40;1.00;;;;;;;9.92;81.60;97776.78;341494;28;1852;-67
2023/01/09 00:17:32;;;;;;;1.45;1.20;;;;;;;9.92;82.05;97774.19;341066;28;1607;-68
2023/01/09 00:17:46;;;;;;;1.35;1.17;;;;;;;9.94;81.82;97769.75;341401;28;2519;-67
2023/01/09 00:17:58;;;;;;;2.63;1.23;;;;;;;9.98;82.30;97773.81;342093;28;1036;-68
2023/01/09 00:18:10;;;;;;;2.67;1.15;;;;;;;10.01;82.37;97772.78;341037;29;1023;-68
2023/01/09 00:18:22;;;;;;;2.25;1.00;;;;;;;10.02;82.15;97769.28;340645;29;1380;-67
2023/01/09 00:18:35;;;;;;;1.10;0.90;;;;;;;10.04;81.84;97769.16;340931;28;1998;-68
2023/01/09 00:18:47;;;;;;;1.10;0.90;;;;;;;10.04;81.91;97774.34;340485;29;1378;-68
2023/01/09 00:18:59;;;;;;;1.50;1.13;;;;;;;10.07;82.05;97776.78;340888;29;1123;-68
2023/01/09 00:19:12;;;;;;;1.27;1.10;;;;;;;10.11;81.96;97771.31;340949;29;1261;-68
2023/01/09 00:19:23;;;;;;;1.20;1.00;;;;;;;10.11;81.80;97771.31;340711;29;1323;-68
2023/01/09 00:19:36;;;;;;;1.33;1.00;;;;;;;10.08;81.74;97770.66;339602;29;1219;-68
2023/01/09 00:19:47;;;;;;;1.85;1.08;;;;;;;10.11;81.36;97770.47;339058;29;2108;-68
2023/01/09 00:19:59;;;;;;;2.53;1.17;;;;;;;10.09;81.55;97769.72;339738;29;1082;-68
2023/01/09 00:20:11;;;;;;;2.65;1.20;;;;;;;10.11;81.36;97775.66;339965;29;1323;-68
2023/01/09 00:20:24;;;;;;;2.10;1.10;;;;;;;10.08;81.60;97773.25;340916;28;1349;-68
2023/01/09 00:20:35;;;;;;;1.63;1.20;;;;;;;10.02;81.26;97771.03;340479;29;1829;-68
2023/01/09 00:20:48;;;;;;;1.20;1.10;;;;;;;10.04;81.75;97769.16;340501;29;1616;-67
2023/01/09 00:21:02;;;;;;;1.02;0.90;;;;;;;10.07;81.44;97775.00;339689;29;1235;-68
2023/01/09 00:21:14;;;;;;;1.48;0.80;;;;;;;10.11;81.46;97773.06;339045;29;1587;-68
2023/01/09 00:21:26;;;;;;;1.85;0.80;;;;;;;10.13;81.35;97773.81;338034;29;1032;-67
2023/01/09 00:21:39;;;;;;;2.70;0.90;;;;;;;10.16;81.47;97774.47;338803;29;1045;-68
2023/01/09 00:21:51;;;;;;;2.00;1.00;;;;;;;10.16;81.34;97776.19;340215;29;2708;-67
2023/01/09 00:22:05;;;;;;;2.97;1.13;;;;;;;10.19;81.51;97770.84;340260;29;2023;-68
2023/01/09 00:22:17;;;;;;;2.78;1.20;;;;;;;10.16;81.47;97778.81;340727;28;1363;-67
2023/01/09 00:22:30;;;;;;;2.03;1.13;;;;;;;10.19;81.81;97776.03;340686;29;1220;-68
2023/01/09 00:22:42;;;;;;;1.70;1.10;;;;;;;10.18;81.34;97777.81;341225;29;1215;-68
2023/01/09 00:22:54;;;;;;;1.80;1.20;;;;;;;10.17;81.42;97775.28;340137;29;1877;-67
2023/01/09 00:23:06;;;;;;;1.80;1.30;;;;;;;10.18;81.41;97777.81;341570;28;1845;-68
2023/01/09 00:23:18;;;;;;;1.58;1.20;;;;;;;10.14;81.48;97770.28;342409;28;1279;-67
2023/01/09 00:23:30;;;;;;;2.45;1.13;;;;;;;10.11;81.77;97776.50;343145;28;1946;-67
2023/01/09 00:23:42;;;;;;;3.05;1.15;;;;;;;10.10;81.68;97768.78;342272;28;1050;-67
2023/01/09 00:23:54;;;;;;;2.63;1.10;;;;;;;10.14;81.90;97771.13;342025;28;1203;-68
2023/01/09 00:24:06;;;;;;;1.98;1.10;;;;;;;10.14;81.84;97771.13;342047;28;1163;-67
2023/01/09 00:24:18;;;;;;;1.75;1.00;;;;;;;10.11;81.35;97773.06;340859;28;1634;-68
2023/01/09 00:24:31;;;;;;;1.73;1.02;;;;;;;10.06;81.32;97773.34;341957;28;1224;-68
2023/01/09 00:24:43;;;;;;;1.73;1.20;;;;;;;10.08;81.59;97770.66;340773;29;1139;-68
2023/01/09 00:24:55;;;;;;;1.80;1.17;;;;;;;10.12;81.48;97772.97;340662;29;1078;-68
2023/01/09 00:25:07;;;;;;;1.73;1.20;;;;;;;10.02;81.27;97771.88;340665;29;1200;-68
2023/01/09 00:25:21;;;;;;;1.67;1.10;;;;;;;10.05;81.35;97771.69;339864;28;1669;-67
2023/01/09 00:25:33;;;;;;;1.50;1.00;;;;;;;10.07;81.31;97774.19;340399;29;1076;-68
2023/01/09 00:25:45;;;;;;;1.20;1.00;;;;;;;10.09;81.00;97767.13;340332;29;1202;-68
2023/01/09 00:26:05;;;;;;;1.30;1.05;;;;;;;10.08;81.28;97763.72;339852;29;2527;-67
2023/01/09 00:26:20;;;;;;;1.52;1.08;;;;;;;10.11;80.96;97765.28;339334;28;1664;-68
2023/01/09 00:26:33;;;;;;;1.75;1.00;;;;;;;10.13;81.51;97766.03;340563;29;1418;-68
2023/01/09 00:26:45;;;;;;;1.90;0.95;;;;;;;10.13;81.01;97766.03;339911;29;1927;-67
2023/01/09 00:26:57;;;;;;;2.53;0.90;;;;;;;10.11;81.60;97766.09;340902;29;1116;-67
2023/01/09 00:27:09;;;;;;;2.20;0.95;;;;;;;10.14;81.31;97765.09;341893;28;1710;-68
2023/01/09 00:27:21;;;;;;;2.20;1.10;;;;;;;10.08;81.56;97765.47;341945;28;1288;-68
2023/01/09 00:27:34;;;;;;;1.17;1.05;;;;;;;10.11;81.51;97760.91;339999;29;1819;-68
2023/01/09 00:27:46;;;;;;;1.20;1.00;;;;;;;10.09;81.53;97764.53;340233;29;1753;-67
2023/01/09 00:27:58;;;;;;;1.30;0.98;;;;;;;10.08;81.37;97765.47;340497;29;1097;-68
2023/01/09 00:28:10;;;;;;;1.10;0.90;;;;;;;10.06;81.46;97762.97;340861;29;1087;-68
2023/01/09 00:28:22;;;;;;;1.20;0.98;;;;;;;10.08;81.31;97755.06;340567;29;1353;-67
2023/01/09 00:28:34;;;;;;;1.48;0.98;;;;;;;10.09;81.42;97756.75;339315;29;1870;-68
2023/01/09 00:28:49;;;;;;;1.48;0.90;;;;;;;10.12;81.22;97756.56;339490;29;1236;-68
2023/01/09 00:29:01;;;;;;;1.00;0.80;;;;;;;10.10;81.59;97758.41;339533;29;1085;-68
2023/01/09 00:29:13;;;;;;;1.05;0.80;;;;;;;10.11;81.38;97760.91;339755;29;1064;-68
2023/01/09 00:29:25;;;;;;;1.70;0.82;;;;;;;10.12;81.39;97751.34;339439;29;1335;-68
2023/01/09 00:29:37;;;;;;;1.52;0.90;;;;;;;10.14;81.18;97752.09;339288;29;1591;-67
2023/01/09 00:29:49;;;;;;;1.50;0.98;;;;;;;10.15;81.30;97752.00;339910;29;1528;-68
2023/01/09 00:30:01;;;;;;;1.27;1.00;;;;;;;10.07;80.72;97750.81;339258;29;1165;-68
2023/01/09 00:30:13;;;;;;;1.42;1.00;;;;;;;10.07;81.11;97754.25;338875;29;1827;-68
2023/01/09 00:30:26;;;;;;;1.25;0.90;;;;;;;10.12;81.41;97759.16;338843;29;2639;-68
2023/01/09 00:30:38;;;;;;;1.08;0.90;;;;;;;10.14;81.40;97754.69;339648;29;1778;-67
2023/01/09 00:31:00;;;;;;;1.10;0.80;;;;;;;10.17;81.26;97751.94;339854;29;1772;-68
2023/01/09 00:31:13;;;;;;;1.00;0.80;;;;;;;10.13;80.96;97745.25;340370;29;1204;-68
2023/01/09 00:31:25;;;;;;;1.00;0.85;;;;;;;10.19;81.00;97752.66;340758;29;1349;-68
2023/01/09 00:31:37;;;;;;;1.00;0.90;;;;;;;10.19;80.73;97757.84;340654;29;1069;-68
2023/01/09 00:31:49;;;;;;;0.80;0.80;;;;;;;10.18;80.68;97757.03;340278;29;1871;-68
2023/01/09 00:32:01;;;;;;;0.80;0.80;;;;;;;10.22;80.64;97757.66;339507;29;1295;-68
2023/01/09 00:32:13;;;;;;;0.82;0.70;;;;;;;10.02;80.60;97752.84;339650;29;1300;-68
2023/01/09 00:32:26;;;;;;;0.98;0.80;;;;;;;10.03;81.01;97763.16;341415;28;1667;-67
2023/01/09 00:32:39;;;;;;;0.98;0.85;;;;;;;10.02;81.18;97755.44;342202;28;1192;-68
2023/01/09 00:32:53;;;;;;;0.80;0.80;;;;;;;10.00;81.47;97753.78;341298;28;2067;-68
2023/01/09 00:33:05;;;;;;;1.52;0.90;;;;;;;10.04;81.13;97753.59;339337;29;1041;-68
2023/01/09 00:33:18;;;;;;;1.60;0.90;;;;;;;10.05;80.98;97755.28;339683;29;1400;-67
2023/01/09 00:33:35;;;;;;;1.77;0.90;;;;;;;10.06;81.44;97756.94;340713;29;1216;-68
2023/01/09 00:34:03;;;;;;;1.05;0.80;;;;;;;10.08;81.07;97749.88;339933;29;1616;-68
2023/01/09 00:34:15;;;;;;;1.45;0.90;;;;;;;10.10;81.16;97743.69;340830;29;1481;-67
2023/01/09 00:34:27;;;;;;;1.80;0.80;;;;;;;10.09;81.20;97746.38;340569;29;1574;-67
2023/01/09 00:34:42;;;;;;;1.92;0.90;;;;;;;10.13;81.15;97753.03;340575;29;1256;-68
2023/01/09 00:34:55;;;;;;;1.55;0.98;;;;;;;10.15;81.60;97753.78;340646;29;1056;-68
2023/01/09 00:35:13;;;;;;;1.60;0.90;;;;;;;10.17;81.45;97754.53;341658;28;1231;-68
2023/01/09 00:35:27;;;;;;;1.60;0.90;;;;;;;10.15;81.07;97751.19;340822;29;1314;-67
2023/01/09 00:35:39;;;;;;;1.25;0.95;;;;;;;10.16;81.16;97752.84;341009;28;1581;-67
2023/01/09 00:35:51;;;;;;;1.98;0.90;;;;;;;10.19;81.25;97750.06;341963;28;1807;-67
2023/01/09 00:36:06;;;;;;;2.25;0.90;;;;;;;10.17;81.33;97749.31;342044;28;1096;-67
2023/01/09 00:36:18;;;;;;;1.40;0.90;;;;;;;10.17;81.45;97741.53;342105;28;1268;-68
2023/01/09 00:36:30;;;;;;;2.30;0.80;;;;;;;10.19;81.37;97752.66;342204;28;1358;-67
2023/01/09 00:36:42;;;;;;;2.00;0.80;;;;;;;10.23;81.46;97753.31;340537;29;1208;-68
2023/01/09 00:36:55;;;;;;;1.40;0.90;;;;;;;10.21;81.29;97750.81;339175;29;1458;-68
2023/01/09 00:37:10;;;;;;;1.02;0.80;;;;;;;10.21;81.00;97745.63;339383;29;1082;-68
2023/01/09 00:37:22;;;;;;;0.85;0.80;;;;;;;10.22;81.20;97746.44;340441;29;1898;-68
2023/01/09 00:37:34;;;;;;;1.20;0.90;;;;;;;10.21;80.70;97745.63;340607;29;1236;-68
2023/01/09 00:37:46;;;;;;;1.25;0.85;;;;;;;10.24;81.10;97749.78;340297;29;1574;-67
2023/01/09 00:37:58;;;;;;;1.27;0.90;;;;;;;10.27;80.74;97739.22;340086;29;1556;-68
2023/01/09 00:38:10;;;;;;;0.95;0.88;;;;;;;10.26;81.27;97741.00;340478;29;1051;-68
2023/01/09 00:38:22;;;;;;;1.45;0.90;;;;;;;10.27;80.89;97745.22;340527;28;1244;-67
2023/01/09 00:38:36;;;;;;;1.80;0.90;;;;;;;10.29;80.72;97742.56;339453;29;1251;-67
2023/01/09 00:38:49;;;;;;;1.92;0.90;;;;;;;10.30;80.82;97733.84;340585;29;1175;-67
2023/01/09 00:39:01;;;;;;;1.17;0.90;;;;;;;10.29;80.86;97738.19;339864;29;758;-67
2023/01/09 00:39:13;;;;;;;1.30;0.80;;;;;;;10.28;80.69;97735.66;339278;29;1052;-68
2023/01/09 00:39:25;;;;;;;1.50;0.90;;;;;;;10.29;80.50;97738.19;340685;29;1225;-68
2023/01/09 00:39:39;;;;;;;1.40;0.80;;;;;;;10.28;80.13;97736.53;340265;29;1620;-67
2023/01/09 00:39:51;;;;;;;1.50;0.85;;;;;;;10.29;80.56;97745.97;341290;28;1164;-67
2023/01/09 00:40:03;;;;;;;1.20;0.90;;;;;;;10.29;80.56;97743.38;338713;28;4707;-67
2023/01/09 00:40:16;;;;;;;1.10;0.95;;;;;;;10.27;80.42;97734.84;340473;29;3436;-67
2023/01/09 00:40:28;;;;;;;1.80;1.00;;;;;;;10.26;80.48;97741.00;339240;29;1328;-68
2023/01/09 00:40:40;;;;;;;2.55;1.05;;;;;;;10.20;80.23;97746.53;340244;29;3420;-67
2023/01/09 00:40:54;;;;;;;2.33;1.00;;;;;;;10.24;80.37;97745.44;340085;29;1704;-67
2023/01/09 00:41:10;;;;;;;1.23;1.00;;;;;;;10.27;80.14;97747.00;341326;28;1812;-68
2023/01/09 00:41:26;;;;;;;1.52;0.90;;;;;;;10.28;80.06;97736.53;341794;28;2196;-68
2023/01/09 00:41:45;;;;;;;1.10;0.80;;;;;;;10.26;79.97;97746.19;342353;28;1229;-68
2023/01/09 00:41:57;;;;;;;1.20;0.90;;;;;;;10.24;79.88;97740.25;341842;28;1261;-68
2023/01/09 00:42:14;;;;;;;1.30;1.00;;;;;;;10.24;80.54;97744.59;342054;28;1158;-68
2023/01/09 00:42:30;;;;;;;1.27;0.93;;;;;;;10.24;80.58;97740.25;340523;29;1098;-68
2023/01/09 00:42:53;;;;;;;1.63;0.93;;;;;;;10.25;80.50;97743.66;339662;29;1657;-68
2023/01/09 00:43:05;;;;;;;1.02;0.90;;;;;;;10.23;80.49;97742.94;340719;29;1160;-68
2023/01/09 00:43:19;;;;;;;0.85;0.82;;;;;;;10.25;80.72;97738.47;340415;28;1541;-68
2023/01/09 00:43:40;;;;;;;1.00;0.90;;;;;;;10.25;80.72;97741.91;340385;29;1219;-68
2023/01/09 00:43:56;;;;;;;1.15;1.10;;;;;;;10.28;80.74;97743.47;340785;29;1336;-67
2023/01/09 00:44:18;;;;;;;1.20;1.10;;;;;;;10.15;80.60;97746.00;340620;29;1296;-67
2023/01/09 00:44:53;;;;;;;1.30;1.10;;;;;;;10.08;80.00;97740.34;339866;29;1501;-67
2023/01/09 00:45:09;;;;;;;1.17;1.00;;;;;;;10.11;80.18;97739.31;341126;28;1263;-67
2023/01/09 00:45:27;;;;;;;1.02;0.90;;;;;;;10.14;80.17;97746.91;341691;28;1303;-68
2023/01/09 00:45:40;;;;;;;1.13;1.02;;;;;;;10.04;80.55;97741.47;342137;28;1146;-67
2023/01/09 00:45:52;;;;;;;1.20;1.10;;;;;;;10.06;80.75;97742.22;342323;28;1057;-67
2023/01/09 00:46:05;;;;;;;1.20;1.10;;;;;;;10.03;80.59;97742.38;340840;29;1223;-67
2023/01/09 00:46:20;;;;;;;1.50;1.10;;;;;;;10.04;80.80;97738.88;340678;29;1291;-67
2023/01/09 00:46:37;;;;;;;1.85;1.10;;;;;;;10.06;80.50;97733.56;340663;29;1769;-67
2023/01/09 00:46:54;;;;;;;2.15;1.02;;;;;;;10.10;80.65;97735.91;340377;29;1666;-68
2023/01/09 00:47:13;;;;;;;1.60;1.00;;;;;;;10.14;80.74;97739.97;340758;29;1274;-67
2023/01/09 00:47:34;;;;;;;1.58;1.20;;;;;;;10.16;80.92;97727.72;340421;29;1540;-67
2023/01/09 00:47:50;;;;;;;1.65;1.10;;;;;;;10.18;80.65;97731.06;339017;29;1655;-67
2023/01/09 00:48:08;;;;;;;2.05;1.10;;;;;;;10.20;80.83;97734.41;340890;28;1518;-67
2023/01/09 00:48:25;;;;;;;1.42;1.13;;;;;;;10.23;80.41;97716.97;342048;28;1305;-67
2023/01/09 00:48:41;;;;;;;1.30;0.93;;;;;;;10.22;80.63;97726.50;341119;28;2663;-67
2023/01/09 00:48:58;;;;;;;1.55;1.00;;;;;;;10.25;80.71;97725.50;339644;29;1277;-68
2023/01/09 00:50:18;;;;;;;1.50;1.10;;;;;;;10.12;79.96;97730.59;338868;29;2383;-68
2023/01/09 00:51:09;;;;;;;1.33;0.90;;;;;;;10.07;80.29;97738.66;341066;28;1178;-67
2023/01/09 00:51:23;;;;;;;1.77;1.13;;;;;;;10.09;80.67;97746.38;341887;28;1199;-68
2023/01/09 00:51:36;;;;;;;2.03;1.23;;;;;;;10.06;80.26;97741.34;342151;28;1306;-67
2023/01/09 00:51:48;;;;;;;1.60;1.13;;;;;;;10.07;80.33;97745.63;342707;28;760;-67
2023/01/09 00:52:02;;;;;;;1.70;1.10;;;;;;;10.09;80.60;97741.19;342204;28;1106;-67
2023/01/09 00:52:14;;;;;;;2.33;1.00;;;;;;;10.11;80.64;97736.72;340861;28;1868;-67
2023/01/09 00:52:28;;;;;;;3.42;1.17;;;;;;;10.10;80.66;97742.81;342155;28;1378;-67
2023/01/09 00:52:42;;;;;;;2.35;1.10;;;;;;;10.08;80.30;97742.09;341885;28;1028;-67
2023/01/09 00:52:59;;;;;;;1.08;0.95;;;;;;;10.10;80.81;97737.63;342234;28;1067;-68
2023/01/09 00:53:17;;;;;;;1.10;1.00;;;;;;;10.14;80.38;97733.94;342191;28;1659;-67
2023/01/09 00:53:34;;;;;;;1.23;1.13;;;;;;;10.16;80.28;97742.44;341946;28;989;-67
2023/01/09 00:53:48;;;;;;;1.20;1.10;;;;;;;10.15;80.61;97738.22;341645;28;1714;-68
2023/01/09 00:54:02;;;;;;;1.17;1.08;;;;;;;10.18;80.52;97740.59;342019;28;1452;-68
2023/01/09 00:54:18;;;;;;;1.23;1.10;;;;;;;10.13;80.67;97743.47;342244;28;1072;-67
2023/01/09 00:54:31;;;;;;;1.52;1.10;;;;;;;10.12;80.40;97736.63;341979;28;1705;-68
2023/01/09 00:54:43;;;;;;;1.70;1.10;;;;;;;10.11;80.96;97734.13;342179;28;1124;-68
2023/01/09 00:54:57;;;;;;;1.70;1.00;;;;;;;10.14;81.04;97736.53;341978;28;1061;-67
2023/01/09 00:55:10;;;;;;;1.67;1.10;;;;;;;10.16;80.54;97740.72;342150;28;1016;-68
2023/01/09 00:55:22;;;;;;;1.27;1.10;;;;;;;10.14;80.39;97734.78;342234;28;1350;-67
2023/01/09 00:55:37;;;;;;;1.38;1.10;;;;;;;10.18;80.77;97735.41;341853;28;1705;-67
2023/01/09 00:55:50;;;;;;;1.50;1.02;;;;;;;10.16;80.74;97732.06;340875;29;2254;-67
2023/01/09 00:56:05;;;;;;;1.40;0.90;;;;;;;10.18;80.78;97730.22;340190;29;2045;-68
2023/01/09 00:56:19;;;;;;;1.83;1.08;;;;;;;10.17;80.47;97733.75;339913;28;1188;-68
2023/01/09 00:56:33;;;;;;;2.10;1.10;;;;;;;10.16;80.12;97739.84;341214;28;1856;-67
2023/01/09 00:56:46;;;;;;;1.80;1.00;;;;;;;10.14;80.39;97733.94;339987;29;788;-68
2023/01/09 00:56:58;;;;;;;1.27;1.05;;;;;;;10.00;80.34;97733.03;339631;29;1054;-67
2023/01/09 00:57:12;;;;;;;1.20;1.00;;;;;;;9.92;80.87;97735.25;339494;29;1191;-68
2023/01/09 00:57:24;;;;;;;1.58;1.05;;;;;;;9.95;80.89;97735.06;341669;28;1318;-68
2023/01/09 00:57:38;;;;;;;1.52;1.02;;;;;;;9.96;81.38;97734.16;340772;28;1788;-68
2023/01/09 00:57:50;;;;;;;1.38;1.02;;;;;;;9.98;81.45;97734.88;340977;28;1752;-67
2023/01/09 00:58:03;;;;;;;1.30;1.10;;;;;;;10.00;81.26;97738.22;342138;28;1045;-68
2023/01/09 00:58:15;;;;;;;1.20;1.05;;;;;;;9.99;81.19;97731.34;342347;28;1056;-68
2023/01/09 00:58:27;;;;;;;1.15;0.98;;;;;;;10.00;81.32;97735.63;342325;28;1300;-68
2023/01/09 00:58:40;;;;;;;1.35;0.90;;;;;;;10.03;80.93;97731.16;340742;28;1649;-67
2023/01/09 00:58:55;;;;;;;1.50;1.00;;;;;;;10.04;80.94;97733.69;341105;28;1067;-67
2023/01/09 00:59:07;;;;;;;1.20;0.93;;;;;;;10.08;81.08;97736.91;341088;29;1020;-68
2023/01/09 00:59:19;;;;;;;1.35;1.00;;;;;;;10.09;80.81;97730.78;341325;28;1213;-68
2023/01/09 00:59:31;;;;;;;1.67;1.10;;;;;;;10.13;81.05;97732.28;342108;28;1357;-68
2023/01/09 00:59:43;;;;;;;1.40;1.00;;;;;;;10.16;80.78;97737.25;340205;29;2035;-67
2023/01/09 00:59:56;;;;;;;1.15;1.00;;;;;;;10.16;80.69;97739.84;339972;29;1833;-68
2023/01/09 01:00:09;;;;;;;1.27;0.95;;;;;;;10.15;80.63;97740.81;340167;29;1535;-68
2023/01/09 01:00:21;;;;;;;1.20;0.90;;;;;;;10.14;80.69;97739.97;341301;28;1485;-68
2023/01/09 01:00:33;;;;;;;1.40;1.00;;;;;;;10.15;80.53;97738.22;341776;28;1042;-67
2023/01/09 01:00:45;;;;;;;1.63;1.10;;;;;;;10.08;81.07;97739.50;340887;29;1012;-68
2023/01/09 01:00:57;;;;;;;1.52;1.10;;;;;;;10.08;81.16;97737.75;340282;29;1900;-68
2023/01/09 01:01:10;;;;;;;1.15;0.95;;;;;;;10.10;81.15;97738.50;340555;29;1020;-68
2023/01/09 01:01:23;;;;;;;1.10;1.00;;;;;;;10.12;80.42;97735.78;342030;28;1308;-65
2023/01/09 01:01:35;;;;;;;1.00;0.90;;;;;;;10.15;80.82;97743.41;341930;28;1060;-66
2023/01/09 01:01:47;;;;;;;0.98;0.90;;;;;;;10.06;81.05;97738.75;341534;28;1040;-66
2023/01/09 01:01:59;;;;;;;1.08;0.98;;;;;;;10.07;81.22;97740.44;340582;28;2223;-66
2023/01/09 01:02:11;;;;;;;1.25;1.08;;;;;;;10.09;80.97;97741.19;341887;28;1749;-66
2023/01/09 01:02:24;;;;;;;1.50;1.10;;;;;;;10.11;81.29;97739.31;340808;29;1318;-66
2023/01/09 01:02:36;;;;;;;1.67;1.10;;;;;;;10.11;81.11;97749.72;340282;29;1735;-66
2023/01/09 01:02:48;;;;;;;2.03;1.10;;;;;;;10.11;80.88;97747.94;340709;29;891;-66
2023/01/09 01:03:00;;;;;;;2.00;1.10;;;;;;;10.04;80.86;97738.88;340777;29;1073;-67
2023/01/09 01:03:12;;;;;;;1.33;1.05;;;;;;;10.07;80.77;97737.84;339481;29;1044;-66
2023/01/09 01:03:24;;;;;;;1.27;1.00;;;;;;;10.10;81.19;97743.69;339675;29;1260;-66
2023/01/09 01:03:38;;;;;;;1.55;1.05;;;;;;;10.12;80.82;97747.03;339665;29;1080;-67
2023/01/09 01:03:50;;;;;;;2.10;1.10;;;;;;;10.11;80.94;97740.16;339076;29;1724;-66
2023/01/09 01:07:37;;;;;;;2.00;1.10;;;;;;;10.12;80.68;97748.75;339851;29;1572;-66
2023/01/09 01:07:46;;;;;;;1.13;0.90;;;;;;;9.91;81.64;97738.75;338843;29;1287;-66
2023/01/09 01:07:58;;;;;;;1.02;0.90;;;;;;;9.93;81.84;97736.09;339078;29;1129;-67
2023/01/09 01:08:12;;;;;;;1.10;0.90;;;;;;;9.96;81.52;97735.88;341761;28;1171;-66
2023/01/09 01:08:24;;;;;;;1.85;1.00;;;;;;;9.98;81.39;97734.88;341355;28;1651;-66
2023/01/09 01:08:36;;;;;;;2.00;1.05;;;;;;;9.99;81.31;97740.91;340500;28;1774;-66
2023/01/09 01:08:48;;;;;;;2.13;1.05;;;;;;;9.99;81.42;97741.72;341759;28;1110;-67
2023/01/09 01:09:00;;;;;;;1.15;0.82;;;;;;;10.02;81.66;97739.88;341987;28;1121;-67
2023/01/09 01:09:12;;;;;;;1.25;0.85;;;;;;;10.05;81.58;97734.50;342387;28;1272;-66
2023/01/09 01:09:24;;;;;;;1.23;1.00;;;;;;;10.05;81.53;97731.91;342149;28;1489;-66
2023/01/09 01:09:36;;;;;;;1.60;0.98;;;;;;;10.10;81.28;97737.63;341371;28;1849;-66
2023/01/09 01:09:48;;;;;;;1.80;0.90;;;;;;;10.14;80.93;97736.53;342116;28;1071;-66